Aviation Digital Data Service (ADDS)

Output produced by TAFs form (1422 UTC 07 December 2016)
found at http://aviationweather.gov/adds/tafs/
 
KAMA 071122Z 0712/0812 17011KT P6SM SCT300 
     FM071700 32015KT P6SM SCT300 
     FM072000 02018G26KT P6SM SCT025 BKN050 
     FM080300 03017G25KT P6SM BKN040 
     FM080900 01012G18KT P6SM SCT040